createdAt,value
2019-02-20T00:02:00.987Z,53.90
2019-02-20T00:04:27.153Z,53.90
2019-02-20T00:06:53.652Z,54.10
2019-02-20T00:09:19.846Z,54.10
2019-02-20T00:11:46.016Z,54.70
2019-02-20T00:14:12.245Z,54.10
2019-02-20T00:16:38.449Z,54.00
2019-02-20T00:19:04.652Z,54.00
2019-02-20T00:21:31.200Z,53.90
2019-02-20T00:23:57.389Z,53.80
2019-02-20T00:26:23.560Z,53.70
2019-02-20T00:28:49.825Z,53.50
2019-02-20T00:31:16.041Z,53.60
2019-02-20T00:33:42.225Z,53.50
2019-02-20T00:36:08.395Z,53.60
2019-02-20T00:38:34.601Z,53.70
2019-02-20T00:41:01.164Z,53.80
2019-02-20T00:43:27.344Z,53.90
2019-02-20T00:46:01.407Z,53.90
2019-02-20T00:48:32.654Z,54.00
2019-02-20T00:51:00.719Z,54.10
2019-02-20T00:53:29.106Z,54.60
2019-02-20T00:55:55.555Z,54.10
2019-02-20T00:58:21.747Z,54.10
2019-02-20T01:00:47.895Z,54.10
2019-02-20T01:03:14.114Z,54.00
2019-02-20T01:05:40.251Z,54.00
2019-02-20T01:08:06.497Z,54.00
2019-02-20T01:10:32.982Z,54.00
2019-02-20T01:12:59.242Z,54.00
2019-02-20T01:15:25.512Z,54.30
2019-02-20T01:17:51.720Z,53.90
2019-02-20T01:20:17.937Z,53.90
2019-02-20T01:22:44.458Z,53.90
2019-02-20T01:25:10.759Z,53.90
2019-02-20T01:27:36.940Z,53.80
2019-02-20T01:30:07.935Z,53.80
2019-02-20T01:32:34.095Z,53.90
2019-02-20T01:35:00.624Z,54.00
2019-02-20T01:37:26.818Z,54.50
2019-02-20T01:39:53.000Z,54.20
2019-02-20T01:42:19.270Z,54.20
2019-02-20T01:44:45.453Z,54.30
2019-02-20T01:47:11.636Z,54.20
2019-02-20T01:49:37.825Z,54.20
2019-02-20T01:52:03.991Z,54.30
2019-02-20T01:54:30.193Z,54.30
2019-02-20T01:56:57.287Z,54.40
2019-02-20T01:59:23.586Z,54.40
2019-02-20T02:01:49.750Z,54.40
2019-02-20T02:04:15.946Z,54.50
2019-02-20T02:06:42.114Z,54.60
2019-02-20T02:09:08.306Z,54.60
2019-02-20T02:11:34.446Z,54.80
2019-02-20T02:14:01.049Z,54.70
2019-02-20T02:16:27.189Z,54.90
2019-02-20T02:18:53.389Z,55.00
2019-02-20T02:21:19.581Z,54.90
2019-02-20T02:23:47.613Z,55.00
2019-02-20T02:26:13.835Z,54.50
2019-02-20T02:28:40.048Z,55.10
2019-02-20T02:31:06.599Z,55.20
2019-02-20T02:33:32.760Z,55.20
2019-02-20T02:35:59.183Z,55.40
2019-02-20T02:38:25.327Z,55.40
2019-02-20T02:40:51.530Z,55.40
2019-02-20T02:43:18.045Z,55.60
2019-02-20T02:45:44.595Z,55.50
2019-02-20T02:48:10.728Z,55.60
2019-02-20T02:50:36.989Z,55.60
2019-02-20T02:53:03.100Z,55.70
2019-02-20T02:55:29.558Z,55.60
2019-02-20T02:57:55.708Z,55.60
2019-02-20T03:00:21.911Z,55.60
2019-02-20T03:02:48.061Z,55.70
2019-02-20T03:05:14.496Z,55.80
2019-02-20T03:07:40.668Z,55.70
2019-02-20T03:10:07.372Z,55.60
2019-02-20T03:12:33.519Z,55.70
2019-02-20T03:14:59.709Z,55.80
2019-02-20T03:17:25.859Z,55.70
2019-02-20T03:19:52.415Z,55.90
2019-02-20T03:22:18.719Z,56.00
2019-02-20T03:24:44.918Z,56.00
2019-02-20T03:27:11.440Z,55.90
2019-02-20T03:29:37.585Z,55.90
2019-02-20T03:32:03.764Z,55.90
2019-02-20T03:34:29.949Z,55.80
2019-02-20T03:36:56.138Z,56.00
2019-02-20T03:39:22.314Z,56.00
2019-02-20T03:41:49.050Z,56.00
2019-02-20T03:44:15.362Z,56.00
2019-02-20T03:46:41.518Z,56.00
2019-02-20T03:49:07.709Z,56.00
2019-02-20T03:51:33.868Z,56.00
2019-02-20T03:54:00.072Z,56.20
2019-02-20T03:56:26.258Z,56.10
2019-02-20T03:58:52.518Z,56.10
2019-02-20T04:01:18.695Z,56.00
2019-02-20T04:03:44.836Z,56.10
2019-02-20T04:06:11.057Z,56.00
2019-02-20T04:08:37.220Z,56.10
2019-02-20T04:11:03.721Z,56.10
2019-02-20T04:13:29.941Z,56.10
2019-02-20T04:15:56.108Z,56.20
2019-02-20T04:18:22.307Z,56.10
2019-02-20T04:20:48.613Z,56.10
2019-02-20T04:23:14.856Z,56.20
2019-02-20T04:25:41.011Z,56.20
2019-02-20T04:28:07.207Z,56.80
2019-02-20T04:30:33.361Z,56.20
2019-02-20T04:32:59.567Z,56.20
2019-02-20T04:35:25.747Z,56.30
2019-02-20T04:37:51.905Z,56.30
2019-02-20T04:40:18.102Z,56.30
2019-02-20T04:42:44.256Z,56.30
2019-02-20T04:45:10.480Z,56.40
2019-02-20T04:47:36.639Z,56.40
2019-02-20T04:50:06.144Z,56.60
2019-02-20T04:52:32.295Z,56.60
2019-02-20T04:54:58.533Z,57.10
2019-02-20T04:57:24.680Z,56.70
2019-02-20T04:59:50.924Z,56.90
2019-02-20T05:02:17.086Z,56.70
2019-02-20T05:04:43.309Z,56.60
2019-02-20T05:07:09.450Z,56.60
2019-02-20T05:09:35.643Z,57.30
2019-02-20T05:12:01.796Z,56.80
2019-02-20T05:14:27.965Z,56.80
2019-02-20T05:16:54.175Z,56.90
2019-02-20T05:19:20.363Z,57.00
2019-02-20T05:21:46.798Z,57.00
2019-02-20T05:24:23.791Z,57.10
2019-02-20T05:26:41.131Z,57.10
2019-02-20T05:29:07.661Z,57.10
2019-02-20T05:31:33.803Z,57.20
2019-02-20T05:33:59.989Z,57.20
2019-02-20T05:36:26.168Z,57.20
2019-02-20T05:38:52.334Z,57.20
2019-02-20T05:41:18.505Z,57.20
2019-02-20T05:43:44.703Z,57.30
2019-02-20T05:46:10.830Z,57.80
2019-02-20T05:48:37.046Z,57.30
2019-02-20T05:51:03.195Z,57.10
2019-02-20T05:53:29.386Z,57.20
2019-02-20T05:55:55.591Z,57.00
2019-02-20T05:58:21.756Z,57.10
2019-02-20T06:00:47.953Z,57.00
2019-02-20T06:03:14.093Z,56.90
2019-02-20T06:05:40.269Z,56.80
2019-02-20T06:08:06.430Z,56.80
2019-02-20T06:10:32.643Z,56.80
2019-02-20T06:12:58.792Z,56.70
2019-02-20T06:15:25.001Z,56.70
2019-02-20T06:17:51.160Z,56.60
2019-02-20T06:20:17.344Z,56.60
2019-02-20T06:22:43.575Z,56.60
2019-02-20T06:25:09.882Z,56.50
2019-02-20T06:27:36.065Z,56.50
2019-02-20T06:30:12.885Z,56.40
2019-02-20T06:32:39.024Z,56.40
2019-02-20T06:35:05.698Z,56.30
2019-02-20T06:37:31.875Z,56.40
2019-02-20T06:40:05.008Z,56.30
2019-02-20T06:42:31.155Z,56.30
2019-02-20T06:44:57.320Z,56.30
2019-02-20T06:47:29.850Z,56.30
2019-02-20T06:49:55.992Z,56.30
2019-02-20T06:52:22.322Z,56.30
2019-02-20T06:54:54.343Z,56.20
2019-02-20T06:57:20.896Z,56.20
2019-02-20T06:59:47.078Z,56.20
2019-02-20T07:02:13.457Z,56.70
2019-02-20T07:05:01.903Z,56.10
2019-02-20T07:07:33.771Z,56.10
2019-02-20T07:10:39.291Z,56.70
2019-02-20T07:13:09.767Z,56.10
2019-02-20T07:16:02.649Z,56.00
2019-02-20T07:18:34.570Z,56.00
2019-02-20T07:21:24.487Z,56.60
2019-02-20T07:24:16.960Z,56.00
2019-02-20T07:27:14.389Z,56.00
2019-02-20T07:30:01.096Z,56.00
2019-02-20T07:32:27.560Z,56.00
2019-02-20T07:34:53.839Z,56.00
2019-02-20T07:37:20.012Z,56.00
2019-02-20T07:39:46.208Z,56.10
2019-02-20T07:42:12.373Z,56.00
2019-02-20T07:44:38.586Z,56.00
2019-02-20T07:47:04.741Z,55.90
2019-02-20T07:49:30.962Z,55.80
2019-02-20T07:51:57.147Z,55.70
2019-02-20T07:54:23.358Z,55.70
2019-02-20T07:56:49.528Z,55.60
2019-02-20T07:59:15.721Z,55.50
2019-02-20T08:01:41.910Z,55.50
2019-02-20T08:04:08.127Z,55.40
2019-02-20T08:06:34.276Z,55.30
2019-02-20T08:09:00.470Z,55.20
2019-02-20T08:11:26.643Z,55.20
2019-02-20T08:13:52.876Z,55.00
2019-02-20T08:16:19.037Z,55.00
2019-02-20T08:18:45.209Z,54.90
2019-02-20T08:21:11.493Z,54.90
2019-02-20T08:23:37.680Z,54.90
2019-02-20T08:26:03.864Z,54.80
2019-02-20T08:28:30.316Z,54.80
2019-02-20T08:30:56.523Z,54.80
2019-02-20T08:33:22.678Z,54.80
2019-02-20T08:35:48.889Z,54.80
2019-02-20T08:38:15.080Z,54.80
2019-02-20T08:40:41.270Z,54.70
2019-02-20T08:43:07.447Z,54.60
2019-02-20T08:45:33.645Z,54.60
2019-02-20T08:47:59.794Z,54.50
2019-02-20T08:50:26.248Z,54.50
2019-02-20T08:52:52.474Z,54.50
2019-02-20T08:55:19.211Z,54.50
2019-02-20T08:57:45.444Z,54.30
2019-02-20T09:00:13.613Z,54.30
2019-02-20T09:02:39.899Z,54.80
2019-02-20T09:05:09.071Z,54.30
2019-02-20T09:07:35.241Z,54.30
2019-02-20T09:10:02.058Z,54.30
2019-02-20T09:12:28.196Z,54.20
2019-02-20T09:14:54.381Z,54.20
2019-02-20T09:17:20.525Z,54.10
2019-02-20T09:19:46.760Z,54.10
2019-02-20T09:22:12.905Z,54.00
2019-02-20T09:24:39.097Z,53.70
2019-02-20T09:27:05.291Z,54.00
2019-02-20T09:29:31.567Z,54.00
2019-02-20T09:31:58.047Z,53.80
2019-02-20T09:34:24.265Z,53.80
2019-02-20T09:36:50.427Z,53.90
2019-02-20T09:39:31.971Z,53.80
2019-02-20T09:41:58.151Z,53.70
2019-02-20T09:44:24.325Z,53.50
2019-02-20T09:46:50.794Z,53.80
2019-02-20T09:49:16.993Z,53.80
2019-02-20T09:51:43.403Z,54.10
2019-02-20T09:54:09.584Z,54.20
2019-02-20T09:56:35.755Z,54.30
2019-02-20T09:59:02.294Z,54.30
2019-02-20T10:01:28.490Z,54.30
2019-02-20T10:03:54.641Z,54.10
2019-02-20T10:06:20.991Z,54.10
2019-02-20T10:08:47.166Z,53.90
2019-02-20T10:11:13.355Z,53.80
2019-02-20T10:13:39.497Z,53.00
2019-02-20T10:16:05.708Z,53.20
2019-02-20T10:18:31.874Z,53.00
2019-02-20T10:20:58.080Z,53.00
2019-02-20T10:23:24.526Z,52.40
2019-02-20T10:25:50.710Z,51.70
2019-02-20T10:28:16.885Z,51.50
2019-02-20T10:30:43.105Z,51.90
2019-02-20T10:33:09.238Z,51.40
2019-02-20T10:35:35.697Z,51.30
2019-02-20T10:38:01.844Z,51.10
2019-02-20T10:40:28.041Z,50.70
2019-02-20T10:42:54.233Z,50.30
2019-02-20T10:45:20.453Z,48.70
2019-02-20T10:47:46.618Z,47.50
2019-02-20T10:50:13.741Z,46.30
2019-02-20T10:52:39.904Z,46.10
2019-02-20T10:55:08.305Z,45.20
2019-02-20T10:57:34.478Z,44.30
2019-02-20T11:00:00.667Z,44.50
2019-02-20T11:02:26.820Z,44.70
2019-02-20T11:04:52.966Z,44.80
2019-02-20T11:07:19.142Z,44.10
2019-02-20T11:09:46.315Z,43.30
2019-02-20T11:12:12.698Z,42.90
2019-02-20T11:14:38.859Z,42.40
2019-02-20T11:17:05.152Z,41.70
2019-02-20T11:19:31.315Z,40.50
2019-02-20T11:21:57.549Z,39.50
2019-02-20T11:24:23.728Z,39.10
2019-02-20T11:26:54.261Z,38.50
2019-02-20T11:29:17.993Z,38.80
2019-02-20T11:31:44.186Z,38.60
2019-02-20T11:34:10.656Z,38.20
2019-02-20T11:36:36.962Z,38.30
2019-02-20T11:39:04.840Z,38.10
2019-02-20T11:41:31.061Z,37.80
2019-02-20T11:43:57.253Z,38.20
2019-02-20T11:46:23.440Z,38.00
2019-02-20T11:48:49.595Z,38.10
2019-02-20T11:51:15.924Z,38.60
2019-02-20T11:53:42.072Z,38.80
2019-02-20T11:56:08.285Z,38.80
2019-02-20T11:58:34.433Z,38.30
2019-02-20T12:01:00.727Z,38.00
2019-02-20T12:03:26.881Z,37.70
2019-02-20T12:05:53.088Z,37.60
2019-02-20T12:08:19.238Z,37.70
2019-02-20T12:10:45.828Z,36.80
2019-02-20T12:13:11.977Z,37.00
2019-02-20T12:15:38.181Z,37.00
2019-02-20T12:18:04.341Z,37.30
2019-02-20T12:20:30.589Z,37.60
2019-02-20T12:22:56.811Z,37.90
2019-02-20T12:25:22.986Z,37.50
2019-02-20T12:27:49.176Z,37.50
2019-02-20T12:30:15.473Z,37.30
2019-02-20T12:32:41.748Z,36.90
2019-02-20T12:35:08.567Z,37.00
2019-02-20T12:37:34.756Z,37.00
2019-02-20T12:40:00.942Z,36.80
2019-02-20T12:42:27.157Z,37.20
2019-02-20T12:44:53.352Z,37.60
2019-02-20T12:47:19.558Z,37.70
2019-02-20T12:49:46.352Z,36.30
2019-02-20T12:52:12.860Z,36.70
2019-02-20T12:54:39.019Z,35.60
2019-02-20T12:57:05.230Z,35.70
2019-02-20T12:59:31.395Z,35.00
2019-02-20T13:01:57.592Z,34.40
2019-02-20T13:04:24.676Z,34.30
2019-02-20T13:06:59.273Z,34.20
2019-02-20T13:09:19.699Z,33.70
2019-02-20T13:11:46.185Z,32.90
2019-02-20T13:14:12.440Z,32.60
2019-02-20T13:16:38.739Z,32.40
2019-02-20T13:19:04.953Z,32.00
2019-02-20T13:21:31.414Z,32.30
2019-02-20T13:23:57.584Z,33.00
2019-02-20T13:26:23.775Z,32.90
2019-02-20T13:28:49.934Z,33.90
2019-02-20T13:31:16.167Z,33.80
2019-02-20T13:33:42.450Z,34.20
2019-02-20T13:36:08.646Z,34.30
2019-02-20T13:38:34.802Z,33.70
2019-02-20T13:41:01.113Z,33.70
2019-02-20T13:43:27.639Z,33.00
2019-02-20T13:45:53.850Z,33.70
2019-02-20T13:48:19.995Z,33.90
2019-02-20T13:50:46.247Z,34.20
2019-02-20T13:53:14.255Z,34.50
2019-02-20T13:55:40.613Z,34.30
2019-02-20T13:58:07.103Z,34.10
2019-02-20T14:00:33.321Z,34.20
2019-02-20T14:02:59.970Z,34.50
2019-02-20T14:05:26.141Z,34.30
2019-02-20T14:07:52.660Z,34.20
2019-02-20T14:10:19.658Z,35.10
2019-02-20T14:12:45.893Z,35.50
2019-02-20T14:15:12.139Z,35.80
2019-02-20T14:17:38.330Z,36.10
2019-02-20T14:20:08.702Z,36.30
2019-02-20T14:22:35.385Z,36.60
2019-02-20T14:25:02.770Z,37.00
2019-02-20T14:27:29.039Z,37.20
2019-02-20T14:29:55.194Z,37.40
2019-02-20T14:32:21.500Z,37.70
2019-02-20T14:34:47.981Z,37.80
2019-02-20T14:37:18.919Z,38.00
2019-02-20T14:39:45.116Z,38.20
2019-02-20T14:42:12.060Z,38.20
2019-02-20T14:44:38.558Z,38.50
2019-02-20T14:47:04.748Z,38.60
2019-02-20T14:49:30.936Z,38.90
2019-02-20T14:51:57.108Z,39.00
2019-02-20T14:54:23.284Z,39.30
2019-02-20T14:56:49.477Z,39.30
2019-02-20T14:59:15.638Z,39.60
2019-02-20T15:01:41.801Z,38.70
2019-02-20T15:04:08.247Z,38.80
2019-02-20T15:06:34.478Z,39.00
2019-02-20T15:09:04.238Z,38.90
2019-02-20T15:11:30.421Z,39.00
2019-02-20T15:13:56.572Z,39.00
2019-02-20T15:16:22.772Z,38.80
2019-02-20T15:18:48.946Z,38.90
2019-02-20T15:21:15.307Z,39.30
2019-02-20T15:23:42.373Z,38.80
2019-02-20T15:26:08.803Z,38.90
2019-02-20T15:28:35.021Z,39.10
2019-02-20T15:31:02.243Z,39.70
2019-02-20T15:33:28.586Z,39.30
2019-02-20T15:35:54.759Z,39.50
2019-02-20T15:38:21.278Z,39.70
2019-02-20T15:40:47.463Z,39.70
2019-02-20T15:43:14.062Z,39.80
2019-02-20T15:45:40.218Z,40.00
2019-02-20T15:48:06.794Z,40.10
2019-02-20T15:50:33.018Z,40.10
2019-02-20T15:52:59.189Z,40.20
2019-02-20T15:55:25.363Z,40.20
2019-02-20T15:57:51.522Z,40.30
2019-02-20T16:00:19.743Z,40.30
2019-02-20T16:02:46.022Z,40.40
2019-02-20T16:05:12.681Z,40.50
2019-02-20T16:07:38.900Z,40.60
2019-02-20T16:10:08.523Z,40.70
2019-02-20T16:12:36.741Z,40.80
2019-02-20T16:15:06.645Z,40.80
2019-02-20T16:17:32.962Z,41.00
2019-02-20T16:19:59.113Z,41.00
2019-02-20T16:22:27.215Z,41.00
2019-02-20T16:24:53.389Z,41.10
2019-02-20T16:27:19.573Z,41.10
2019-02-20T16:29:45.809Z,41.20
2019-02-20T16:32:12.003Z,41.20
2019-02-20T16:34:48.133Z,41.20
2019-02-20T16:37:14.334Z,41.40
2019-02-20T16:39:40.793Z,41.40
2019-02-20T16:42:07.257Z,41.60
2019-02-20T16:44:33.731Z,41.70
2019-02-20T16:46:59.886Z,41.80
2019-02-20T16:49:26.091Z,42.00
2019-02-20T16:51:52.243Z,42.10
2019-02-20T16:54:18.451Z,42.20
2019-02-20T16:56:44.633Z,42.30
2019-02-20T16:59:10.839Z,42.40
2019-02-20T17:01:37.273Z,42.50
2019-02-20T17:04:03.576Z,42.80
2019-02-20T17:06:29.821Z,42.80
2019-02-20T17:08:56.406Z,42.90
2019-02-20T17:11:22.594Z,43.00
2019-02-20T17:13:48.806Z,43.20
2019-02-20T17:16:14.951Z,43.30
2019-02-20T17:18:41.150Z,43.40
2019-02-20T17:21:07.350Z,43.50
2019-02-20T17:23:33.838Z,43.60
2019-02-20T17:26:00.035Z,43.60
2019-02-20T17:28:26.230Z,43.80
2019-02-20T17:30:52.376Z,43.90
2019-02-20T17:33:18.601Z,44.00
2019-02-20T17:35:44.732Z,44.00
2019-02-20T17:38:11.916Z,44.10
2019-02-20T17:40:38.090Z,44.20
2019-02-20T17:43:06.716Z,44.30
2019-02-20T17:45:32.800Z,44.40
2019-02-20T17:48:00.085Z,44.40
2019-02-20T17:50:26.684Z,44.50
2019-02-20T17:52:52.838Z,44.60
2019-02-20T17:55:19.040Z,44.70
2019-02-20T17:57:45.197Z,44.80
2019-02-20T18:00:16.077Z,44.90
2019-02-20T18:02:42.240Z,45.00
2019-02-20T18:05:08.543Z,45.10
2019-02-20T18:07:34.857Z,45.20
2019-02-20T18:10:02.962Z,45.40
2019-02-20T18:12:29.270Z,45.40
2019-02-20T18:14:55.604Z,45.60
2019-02-20T18:17:23.579Z,45.90
2019-02-20T18:19:49.884Z,45.80
2019-02-20T18:22:16.026Z,45.80
2019-02-20T18:24:42.200Z,45.80
2019-02-20T18:27:08.367Z,45.80
2019-02-20T18:29:34.598Z,45.80
2019-02-20T18:32:00.783Z,45.90
2019-02-20T18:34:27.026Z,46.00
2019-02-20T18:36:53.434Z,46.00
2019-02-20T18:39:19.645Z,46.00
2019-02-20T18:41:45.812Z,46.20
2019-02-20T18:44:12.005Z,46.20
2019-02-20T18:46:38.489Z,46.20
2019-02-20T18:49:04.701Z,46.30
2019-02-20T18:51:30.887Z,46.60
2019-02-20T18:53:57.374Z,46.60
2019-02-20T18:56:23.590Z,46.60
2019-02-20T18:58:49.783Z,46.70
2019-02-20T19:01:15.960Z,46.80
2019-02-20T19:03:42.214Z,46.80
2019-02-20T19:06:08.441Z,46.90
2019-02-20T19:08:47.677Z,47.00
2019-02-20T19:11:25.130Z,47.00
2019-02-20T19:14:05.848Z,47.20
2019-02-20T19:17:00.066Z,47.20
2019-02-20T19:19:50.350Z,47.90
2019-02-20T19:22:37.139Z,47.40
2019-02-20T19:25:53.220Z,47.60
2019-02-20T19:28:43.853Z,47.80
2019-02-20T19:31:37.247Z,47.90
2019-02-20T19:34:20.658Z,48.10
2019-02-20T19:37:12.261Z,48.30
2019-02-20T19:39:56.187Z,48.40
2019-02-20T19:42:44.728Z,48.50
2019-02-20T19:45:38.133Z,48.60
2019-02-20T19:48:43.021Z,48.60
2019-02-20T19:51:23.954Z,48.70
2019-02-20T19:54:17.122Z,48.80
2019-02-20T19:57:08.763Z,48.80
2019-02-20T19:59:58.157Z,49.50
2019-02-20T20:02:41.561Z,48.90
2019-02-20T20:05:25.002Z,48.90
2019-02-20T20:08:12.265Z,48.90
2019-02-20T20:10:47.265Z,48.90
2019-02-20T20:13:31.572Z,48.90
2019-02-20T20:16:43.106Z,48.90
2019-02-20T20:19:47.746Z,49.00
2019-02-20T20:22:52.101Z,48.90
2019-02-20T20:25:35.225Z,49.00
2019-02-20T20:28:09.954Z,49.10
2019-02-20T20:31:03.730Z,49.20
2019-02-20T20:33:58.642Z,49.30
2019-02-20T20:36:45.230Z,49.30
2019-02-20T20:39:30.857Z,49.30
2019-02-20T20:42:26.094Z,49.20
2019-02-20T20:45:16.056Z,49.20
2019-02-20T20:48:12.337Z,49.20
2019-02-20T20:51:16.098Z,49.20
2019-02-20T20:54:09.112Z,49.20
2019-02-20T20:56:57.953Z,49.30
2019-02-20T20:59:41.599Z,49.30
2019-02-20T21:02:13.342Z,49.40
2019-02-20T21:05:10.663Z,49.50
2019-02-20T21:07:56.517Z,49.60
2019-02-20T21:10:31.212Z,49.60
2019-02-20T21:13:51.629Z,49.70
2019-02-20T21:16:58.348Z,49.70
2019-02-20T21:19:59.763Z,49.60
2019-02-20T21:22:51.121Z,49.80
2019-02-20T21:25:37.808Z,49.70
2019-02-20T21:28:21.023Z,49.80
2019-02-20T21:31:17.010Z,50.00
2019-02-20T21:34:03.654Z,50.00
2019-02-20T21:36:38.609Z,49.90
2019-02-20T21:39:32.379Z,50.10
2019-02-20T21:42:27.327Z,50.10
2019-02-20T21:45:11.482Z,50.10
2019-02-20T21:47:58.078Z,50.30
2019-02-20T21:50:48.039Z,50.30
2019-02-20T21:54:13.939Z,50.40
2019-02-20T21:57:09.444Z,50.50
2019-02-20T22:00:01.803Z,50.50
2019-02-20T22:02:36.444Z,50.60
2019-02-20T22:05:23.228Z,50.70
2019-02-20T22:08:42.175Z,50.70
2019-02-20T22:11:20.284Z,50.70
2019-02-20T22:14:14.666Z,50.70
2019-02-20T22:16:58.119Z,50.80
2019-02-20T22:19:58.822Z,50.80
2019-02-20T22:22:48.314Z,50.70
2019-02-20T22:25:40.491Z,50.70
2019-02-20T22:28:50.580Z,50.80
2019-02-20T22:31:22.448Z,50.90
2019-02-20T22:34:17.438Z,50.90
2019-02-20T22:37:01.510Z,51.10
2019-02-20T22:39:42.005Z,51.20
2019-02-20T22:42:28.049Z,51.30
2019-02-20T22:45:23.378Z,51.40
2019-02-20T22:48:15.507Z,51.40
2019-02-20T22:51:05.705Z,51.40
2019-02-20T22:53:55.260Z,51.40
2019-02-20T22:56:33.159Z,51.50
2019-02-20T22:59:17.098Z,51.50
2019-02-20T23:01:49.017Z,51.60
2019-02-20T23:04:35.308Z,51.60
2019-02-20T23:07:18.235Z,51.70
2019-02-20T23:10:04.345Z,51.70
2019-02-20T23:12:53.704Z,51.70
2019-02-20T23:15:19.891Z,51.60
2019-02-20T23:17:46.065Z,51.60
2019-02-20T23:20:12.236Z,51.70
2019-02-20T23:22:38.425Z,51.70
2019-02-20T23:25:05.213Z,51.80
2019-02-20T23:27:31.363Z,51.90
2019-02-20T23:29:57.568Z,52.00
2019-02-20T23:32:23.745Z,52.00
2019-02-20T23:34:49.951Z,52.10
2019-02-20T23:37:16.124Z,52.10
2019-02-20T23:39:42.303Z,52.20
2019-02-20T23:42:08.504Z,51.80
2019-02-20T23:44:34.682Z,52.40
2019-02-20T23:47:00.840Z,52.50
2019-02-20T23:49:27.037Z,52.50
2019-02-20T23:51:53.312Z,52.50
2019-02-20T23:54:19.560Z,52.50
2019-02-20T23:56:45.726Z,52.60
2019-02-20T23:59:13.885Z,52.70
